createdAt,value
2023-02-11T00:02:20.645Z,81.37
2023-02-11T00:07:15.081Z,80.55
2023-02-11T00:12:06.744Z,80.62
2023-02-11T00:16:59.679Z,80.41
2023-02-11T00:21:54.264Z,80.38
2023-02-11T00:26:48.644Z,80.85
2023-02-11T00:31:40.752Z,80.82
2023-02-11T00:36:36.168Z,80.55
2023-02-11T00:41:28.936Z,80.20
2023-02-11T00:46:22.320Z,81.83
2023-02-11T00:51:12.877Z,80.63
2023-02-11T00:56:03.228Z,81.51
2023-02-11T01:00:53.992Z,81.48
2023-02-11T01:05:53.055Z,82.17
2023-02-11T01:10:47.501Z,82.21
2023-02-11T01:15:41.014Z,82.02
2023-02-11T01:20:44.043Z,82.00
2023-02-11T01:25:37.844Z,83.47
2023-02-11T01:30:30.982Z,82.00
2023-02-11T01:35:23.222Z,81.89
2023-02-11T01:40:18.173Z,81.73
2023-02-11T01:45:39.891Z,81.86
2023-02-11T01:50:34.625Z,81.26
2023-02-11T01:55:38.427Z,81.63
2023-02-11T02:00:36.774Z,81.76
2023-02-11T02:05:42.827Z,81.54
2023-02-11T02:10:37.904Z,81.10
2023-02-11T02:15:33.995Z,81.98
2023-02-11T02:20:54.720Z,82.44
2023-02-11T02:26:30.724Z,83.06
2023-02-11T02:31:47.249Z,83.63
2023-02-11T02:36:47.565Z,83.14
2023-02-11T02:41:42.217Z,82.67
2023-02-11T02:46:35.512Z,82.69
2023-02-11T02:51:44.520Z,83.93
2023-02-11T02:56:48.919Z,83.54
2023-02-11T03:01:51.545Z,83.75
2023-02-11T03:06:47.479Z,85.78
2023-02-11T03:11:47.031Z,84.39
2023-02-11T03:16:43.144Z,83.76
2023-02-11T03:21:37.785Z,83.31
2023-02-11T03:26:37.007Z,83.33
2023-02-11T03:31:41.297Z,84.38
2023-02-11T03:36:39.746Z,85.38
2023-02-11T03:41:35.104Z,84.25
2023-02-11T03:46:35.400Z,84.53
2023-02-11T03:51:37.489Z,83.91
2023-02-11T03:56:32.366Z,83.54
2023-02-11T04:01:22.825Z,83.29
2023-02-11T04:06:15.466Z,83.72
2023-02-11T04:11:05.217Z,84.88
2023-02-11T04:15:59.169Z,83.90
2023-02-11T04:20:51.041Z,83.68
2023-02-11T04:25:45.926Z,84.05
2023-02-11T04:30:37.803Z,83.47
2023-02-11T04:35:34.216Z,83.23
2023-02-11T04:40:26.976Z,98.02
2023-02-11T04:45:24.250Z,89.85
2023-02-11T04:50:14.930Z,88.68
2023-02-11T04:55:07.063Z,89.43
2023-02-11T04:59:57.290Z,89.17
2023-02-11T05:04:50.142Z,90.61
2023-02-11T05:09:41.892Z,87.53
2023-02-11T05:14:37.939Z,87.31
2023-02-11T05:19:34.138Z,88.01
2023-02-11T05:24:28.922Z,88.63
2023-02-11T05:29:20.596Z,90.88
2023-02-11T05:34:12.716Z,88.57
2023-02-11T05:39:03.729Z,100.00
2023-02-11T05:43:57.508Z,100.00
2023-02-11T05:48:50.208Z,100.00
2023-02-11T05:53:42.256Z,100.00
2023-02-11T05:58:41.565Z,100.00
2023-02-11T06:03:34.241Z,100.00
2023-02-11T06:08:24.773Z,100.00
2023-02-11T06:13:17.944Z,100.00
2023-02-11T06:18:10.256Z,100.00
2023-02-11T06:23:04.251Z,100.00
2023-02-11T06:27:55.634Z,100.00
2023-02-11T06:32:46.888Z,100.00
2023-02-11T06:37:38.355Z,100.00
2023-02-11T06:42:32.320Z,100.00
2023-02-11T06:47:34.161Z,100.00
2023-02-11T06:52:26.117Z,100.00
2023-02-11T06:57:16.840Z,100.00
2023-02-11T07:02:15.317Z,100.00
2023-02-11T07:07:10.164Z,100.00
2023-02-11T07:12:02.030Z,100.00
2023-02-11T07:16:57.529Z,100.00
2023-02-11T07:21:55.438Z,100.00
2023-02-11T07:26:46.893Z,100.00
2023-02-11T07:31:42.220Z,100.00
2023-02-11T07:36:35.428Z,100.00
2023-02-11T07:41:29.565Z,100.00
2023-02-11T07:46:23.047Z,100.00
2023-02-11T07:51:15.522Z,100.00
2023-02-11T07:56:07.661Z,100.00
2023-02-11T08:01:07.449Z,100.00
2023-02-11T08:06:03.647Z,100.00
2023-02-11T08:10:56.556Z,100.00
2023-02-11T08:15:49.922Z,100.00
2023-02-11T08:20:47.119Z,100.00
2023-02-11T08:25:38.692Z,100.00
2023-02-11T08:30:29.930Z,100.00
2023-02-11T08:35:21.424Z,100.00
2023-02-11T08:40:15.987Z,100.00
2023-02-11T08:45:08.750Z,100.00
2023-02-11T08:50:03.659Z,99.73
2023-02-11T08:54:54.301Z,99.09
2023-02-11T08:59:51.383Z,98.50
2023-02-11T09:04:42.768Z,98.14
2023-02-11T09:09:33.768Z,97.71
2023-02-11T09:14:26.115Z,97.99
2023-02-11T09:19:28.445Z,97.82
2023-02-11T09:24:19.666Z,96.18
2023-02-11T09:29:12.390Z,96.46
2023-02-11T09:34:04.318Z,95.81
2023-02-11T09:38:57.855Z,95.38
2023-02-11T09:43:51.658Z,95.80
2023-02-11T09:48:45.307Z,95.67
2023-02-11T09:53:41.625Z,95.82
2023-02-11T09:58:36.876Z,95.75
2023-02-11T10:03:41.104Z,95.53
2023-02-11T10:08:38.316Z,94.82
2023-02-11T10:13:53.469Z,94.08
2023-02-11T10:18:50.922Z,94.87
2023-02-11T10:23:44.738Z,93.88
2023-02-11T10:28:37.085Z,94.47
2023-02-11T10:33:32.962Z,93.96
2023-02-11T10:38:29.197Z,92.98
2023-02-11T10:43:20.907Z,93.01
2023-02-11T10:48:31.276Z,93.14
2023-02-11T10:53:25.819Z,92.97
2023-02-11T10:58:25.278Z,92.51
2023-02-11T11:03:20.659Z,92.74
2023-02-11T11:08:17.425Z,92.13
2023-02-11T11:13:26.743Z,92.50
2023-02-11T11:18:23.463Z,92.10
2023-02-11T11:23:19.306Z,91.61
2023-02-11T11:28:10.525Z,91.97
2023-02-11T11:33:02.670Z,92.14
2023-02-11T11:38:11.215Z,91.76
2023-02-11T11:43:11.477Z,90.85
2023-02-11T11:48:03.062Z,90.92
2023-02-11T11:52:58.424Z,91.32
2023-02-11T11:57:52.698Z,90.98
2023-02-11T12:03:02.241Z,90.75
2023-02-11T12:07:57.961Z,90.29
2023-02-11T12:12:54.487Z,90.23
2023-02-11T12:18:01.463Z,89.44
2023-02-11T12:22:56.419Z,89.26
2023-02-11T12:27:51.858Z,88.81
2023-02-11T12:32:48.460Z,88.57
2023-02-11T12:37:52.902Z,88.75
2023-02-11T12:43:02.676Z,88.66
2023-02-11T12:48:07.223Z,88.69
2023-02-11T12:53:07.745Z,88.06
2023-02-11T12:58:00.972Z,88.09
2023-02-11T13:03:00.144Z,87.83
2023-02-11T13:07:51.510Z,87.88
2023-02-11T13:12:59.631Z,86.35
2023-02-11T13:17:53.713Z,85.60
2023-02-11T13:22:51.266Z,85.69
2023-02-11T13:27:52.022Z,85.39
2023-02-11T13:33:04.961Z,86.10
2023-02-11T13:37:58.132Z,85.39
2023-02-11T13:47:10.922Z,84.88
2023-02-11T13:52:06.901Z,84.15
2023-02-11T14:02:20.126Z,83.04
2023-02-11T14:07:38.847Z,83.58
2023-02-11T14:12:38.902Z,83.55
2023-02-11T14:17:36.816Z,83.52
2023-02-11T14:22:27.571Z,82.94
2023-02-11T14:27:23.585Z,82.31
2023-02-11T14:32:27.322Z,84.04
2023-02-11T14:37:22.854Z,83.91
2023-02-11T14:42:21.173Z,83.91
2023-02-11T14:47:19.462Z,82.85
2023-02-11T14:52:21.892Z,82.54
2023-02-11T14:57:17.012Z,81.77
2023-02-11T15:02:23.689Z,80.86
2023-02-11T15:07:21.194Z,80.74
2023-02-11T15:12:20.330Z,80.90
2023-02-11T15:17:11.750Z,81.45
2023-02-11T15:22:02.615Z,81.38
2023-02-11T15:27:01.829Z,81.14
2023-02-11T15:32:05.649Z,81.36
2023-02-11T15:36:58.365Z,81.30
2023-02-11T15:41:49.951Z,80.63
2023-02-11T15:46:48.196Z,81.14
2023-02-11T15:51:41.166Z,80.07
2023-02-11T15:56:34.612Z,81.07
2023-02-11T16:01:33.902Z,81.41
2023-02-11T16:06:29.226Z,81.39
2023-02-11T16:11:30.269Z,81.43
2023-02-11T16:16:27.405Z,82.24
2023-02-11T16:21:24.019Z,81.73
2023-02-11T16:26:29.924Z,82.30
2023-02-11T16:31:20.068Z,82.17
2023-02-11T16:36:17.589Z,81.74
2023-02-11T16:41:12.241Z,81.40
2023-02-11T16:46:06.276Z,82.61
2023-02-11T16:51:02.152Z,81.83
2023-02-11T16:55:53.544Z,82.43
2023-02-11T17:00:49.653Z,82.08
2023-02-11T17:05:58.302Z,82.02
2023-02-11T17:10:48.098Z,81.54
2023-02-11T17:15:38.117Z,82.02
2023-02-11T17:20:28.530Z,81.32
2023-02-11T17:25:24.986Z,81.47
2023-02-11T17:30:18.150Z,80.77
2023-02-11T17:35:09.702Z,80.38
2023-02-11T17:40:06.125Z,80.61
2023-02-11T17:45:01.991Z,79.75
2023-02-11T17:49:52.555Z,79.38
2023-02-11T17:54:42.976Z,79.39
2023-02-11T17:59:36.900Z,79.78
2023-02-11T18:04:30.116Z,80.24
2023-02-11T18:09:22.016Z,78.36
2023-02-11T18:14:13.715Z,79.20
2023-02-11T18:19:07.001Z,79.27
2023-02-11T18:24:06.057Z,78.29
2023-02-11T18:28:58.813Z,78.60
2023-02-11T18:33:49.764Z,77.74
2023-02-11T18:38:40.358Z,77.87
2023-02-11T18:43:37.118Z,78.78
2023-02-11T18:48:30.614Z,77.69
2023-02-11T18:53:21.109Z,77.93
2023-02-11T18:58:12.213Z,78.83
2023-02-11T19:03:05.516Z,77.62
2023-02-11T19:07:55.621Z,76.95
2023-02-11T19:12:47.598Z,77.02
2023-02-11T19:17:37.988Z,77.58
2023-02-11T19:22:32.785Z,78.20
2023-02-11T19:27:23.318Z,78.27
2023-02-11T19:32:13.693Z,77.75
2023-02-11T19:37:06.716Z,77.81
2023-02-11T19:42:01.674Z,77.40
2023-02-11T19:46:53.783Z,77.08
2023-02-11T19:51:46.279Z,76.25
2023-02-11T19:56:38.998Z,76.86
2023-02-11T20:01:35.738Z,75.98
2023-02-11T20:06:28.987Z,77.13
2023-02-11T20:11:21.012Z,76.22
2023-02-11T20:16:13.127Z,76.68
2023-02-11T20:21:11.959Z,77.63
2023-02-11T20:26:11.674Z,75.88
2023-02-11T20:31:06.289Z,77.52
2023-02-11T20:36:02.999Z,76.03
2023-02-11T20:40:59.006Z,75.59
2023-02-11T20:45:53.038Z,76.01
2023-02-11T20:50:48.258Z,76.42
2023-02-11T20:55:43.687Z,76.40
2023-02-11T21:00:38.302Z,77.08
2023-02-11T21:10:44.627Z,76.50
2023-02-11T21:15:39.118Z,76.31
2023-02-11T21:20:33.372Z,76.49
2023-02-11T21:25:29.368Z,76.05
2023-02-11T21:30:27.054Z,76.07
2023-02-11T21:35:20.753Z,76.34
2023-02-11T21:40:15.108Z,75.83
2023-02-11T21:45:06.600Z,76.26
2023-02-11T21:49:57.312Z,76.35
2023-02-11T21:54:52.828Z,76.53
2023-02-11T22:04:52.274Z,77.42
2023-02-11T22:09:43.455Z,76.37
2023-02-11T22:14:41.636Z,75.71
2023-02-11T22:19:33.008Z,75.07
2023-02-11T22:24:25.714Z,74.56
2023-02-11T22:29:16.446Z,75.53
2023-02-11T22:34:10.129Z,75.49
2023-02-11T22:39:03.725Z,74.96
2023-02-11T22:44:08.942Z,75.01
2023-02-11T22:49:02.623Z,75.48
2023-02-11T22:53:57.957Z,75.42
2023-02-11T22:58:49.004Z,75.18
2023-02-11T23:03:41.410Z,75.09
2023-02-11T23:08:31.756Z,75.22
2023-02-11T23:13:24.206Z,75.71
2023-02-11T23:18:15.186Z,75.54
2023-02-11T23:23:06.403Z,75.54
2023-02-11T23:28:03.621Z,75.15
2023-02-11T23:32:57.413Z,75.28
2023-02-11T23:37:47.418Z,75.23
2023-02-11T23:42:37.943Z,75.17
2023-02-11T23:47:28.949Z,74.98
2023-02-11T23:52:24.756Z,75.25
2023-02-11T23:57:18.636Z,75.32
